Time;durP1;ratioP1;P1;durP2;ratioP2;P2;SDS_P1;SDS_P2;PMS_P1;PMS_P2;Temp;Humidity;BMP_temperature;BMP_pressure;BME280_temperature;BME280_humidity;BME280_pressure;Samples;Min_cycle;Max_cycle;Signal;HPM_P1;HPM_P2
2023/05/15 00:00:23;;;;;;;4.18;2.10;;;14.30;78.60;;;;;;5032419;28;20185;-82
2023/05/15 00:02:49;;;;;;;2.65;1.95;;;14.30;78.30;;;;;;5039048;28;20237;-83
2023/05/15 00:05:14;;;;;;;5.38;2.33;;;14.30;78.40;;;;;;5039564;28;20215;-83
2023/05/15 00:07:41;;;;;;;3.38;2.33;;;;;;;;;;5038669;28;20169;-83
2023/05/15 00:10:07;;;;;;;5.90;2.88;;;14.30;77.80;;;;;;5024020;28;20181;-83
2023/05/15 00:12:33;;;;;;;2.95;2.30;;;14.30;78.60;;;;;;5019496;28;20185;-83
2023/05/15 00:14:59;;;;;;;3.85;2.70;;;14.30;78.70;;;;;;5035425;28;20185;-83
2023/05/15 00:17:25;;;;;;;3.47;2.47;;;14.70;83.50;;;;;;5039141;28;20177;-83
2023/05/15 00:19:53;;;;;;;3.53;2.40;;;14.30;78.70;;;;;;5039459;28;20188;-83
2023/05/15 00:22:19;;;;;;;3.80;2.50;;;14.30;79.20;;;;;;5016582;28;20557;-83
2023/05/15 00:24:45;;;;;;;4.32;2.60;;;14.30;79.30;;;;;;5014313;28;20216;-83
2023/05/15 00:27:10;;;;;;;2.83;2.38;;;14.30;79.00;;;;;;4983930;28;20185;-83
2023/05/15 00:29:36;;;;;;;4.05;2.72;;;14.30;79.10;;;;;;5000029;28;20291;-83
2023/05/15 00:32:01;;;;;;;4.15;2.67;;;14.20;79.40;;;;;;5034118;28;20188;-83
2023/05/15 00:34:27;;;;;;;5.00;2.83;;;14.30;80.60;;;;;;5039166;28;20236;-83
2023/05/15 00:36:53;;;;;;;2.90;2.13;;;14.20;80.30;;;;;;5029165;28;20653;-82
2023/05/15 00:39:18;;;;;;;3.88;2.22;;;14.20;80.20;;;;;;5014125;28;20227;-83
2023/05/15 00:41:45;;;;;;;4.57;2.53;;;14.20;80.00;;;;;;5013353;28;20233;-83
2023/05/15 00:44:11;;;;;;;2.42;1.90;;;14.10;80.50;;;;;;5013368;28;20691;-83
2023/05/15 00:46:38;;;;;;;3.95;2.00;;;14.20;80.50;;;;;;5014539;28;20577;-83
2023/05/15 00:49:12;;;;;;;8.18;3.33;;;14.20;80.90;;;;;;5013306;28;20177;-83
2023/05/15 00:51:41;;;;;;;6.07;2.50;;;14.10;80.70;;;;;;5014523;28;20531;-84
2023/05/15 00:54:08;;;;;;;17.15;2.97;;;14.10;80.80;;;;;;5014590;28;20174;-83
2023/05/15 00:56:34;;;;;;;3.28;2.30;;;14.10;81.40;;;;;;5013502;28;20186;-83
2023/05/15 00:59:02;;;;;;;3.40;2.25;;;14.10;81.60;;;;;;5029679;28;20213;-83
2023/05/15 01:01:32;;;;;;;9.00;2.42;;;14.10;81.40;;;;;;5014568;28;20188;-83
2023/05/15 01:03:58;;;;;;;3.67;2.42;;;14.10;82.50;;;;;;5013170;28;20241;-83
2023/05/15 01:06:24;;;;;;;4.60;2.38;;;14.10;81.80;;;;;;5014433;28;20204;-83
2023/05/15 01:08:52;;;;;;;3.80;2.42;;;14.10;82.00;;;;;;5013202;28;20593;-83
2023/05/15 01:11:18;;;;;;;3.85;2.20;;;14.10;81.80;;;;;;5014494;28;20213;-83
2023/05/15 01:13:44;;;;;;;3.90;2.47;;;14.00;82.30;;;;;;5013268;28;20650;-83
2023/05/15 01:16:10;;;;;;;2.90;2.40;;;14.00;82.50;;;;;;5012663;28;20208;-83
2023/05/15 01:18:36;;;;;;;3.97;2.40;;;14.00;82.60;;;;;;5014432;28;20184;-83
2023/05/15 01:21:05;;;;;;;7.25;2.80;;;14.00;82.70;;;;;;5014007;28;20208;-82
2023/05/15 01:23:37;;;;;;;3.97;2.65;;;14.00;82.50;;;;;;5014156;28;20187;-83
2023/05/15 01:26:41;;;;;;;4.05;2.70;;;14.00;82.60;;;;;;5014226;28;20244;-82
2023/05/15 01:29:06;;;;;;;2.58;2.28;;;14.00;82.60;;;;;;4943744;28;20192;-83
2023/05/15 01:31:35;;;;;;;3.05;2.45;;;14.00;83.20;;;;;;5014061;28;20241;-83
2023/05/15 01:34:07;;;;;;;4.93;2.97;;;14.00;83.10;;;;;;5014041;28;20180;-83
2023/05/15 01:36:38;;;;;;;5.47;2.35;;;14.00;83.30;;;;;;5014130;28;20209;-83
2023/05/15 01:39:05;;;;;;;2.92;2.15;;;14.00;83.20;;;;;;5014246;28;20170;-83
2023/05/15 01:41:44;;;;;;;8.95;2.70;;;14.00;83.50;;;;;;5013921;28;20685;-83
2023/05/15 01:44:31;;;;;;;5.15;2.60;;;14.00;83.40;;;;;;5013592;28;20597;-84
2023/05/15 01:47:06;;;;;;;5.28;2.28;;;14.00;83.90;;;;;;5013600;28;20181;-82
2023/05/15 01:49:34;;;;;;;3.17;2.38;;;14.00;83.70;;;;;;5014095;28;20164;-83
2023/05/15 01:52:16;;;;;;;4.47;2.47;;;14.00;84.10;;;;;;5012465;28;20653;-83
2023/05/15 01:54:43;;;;;;;3.15;2.38;;;14.00;84.50;;;;;;5013616;28;20170;-83
2023/05/15 01:57:10;;;;;;;3.97;2.58;;;14.00;85.10;;;;;;5013570;28;20196;-82
2023/05/15 01:59:37;;;;;;;9.10;2.70;;;14.00;85.40;;;;;;5013943;28;20173;-82
2023/05/15 02:02:06;;;;;;;3.85;2.50;;;14.00;84.80;;;;;;5015675;28;20189;-82
2023/05/15 02:04:33;;;;;;;5.13;2.63;;;14.00;85.50;;;;;;5012513;28;20202;-85
2023/05/15 02:07:01;;;;;;;7.25;2.40;;;14.00;85.40;;;;;;5013280;28;20181;-84
2023/05/15 02:09:27;;;;;;;8.02;3.25;;;14.00;85.60;;;;;;5013774;28;20201;-84
2023/05/15 02:11:54;;;;;;;2.60;2.38;;;13.90;85.80;;;;;;5013574;28;20231;-84
2023/05/15 02:14:21;;;;;;;3.97;2.92;;;13.90;85.80;;;;;;5013183;28;20180;-84
2023/05/15 02:16:47;;;;;;;3.17;2.35;;;13.90;86.30;;;;;;5013322;28;20635;-84
2023/05/15 02:19:13;;;;;;;8.25;2.63;;;13.90;86.60;;;;;;5012690;28;20284;-84
2023/05/15 02:21:38;;;;;;;2.63;2.40;;;13.90;87.20;;;;;;5012219;28;20178;-84
2023/05/15 02:24:04;;;;;;;3.03;2.25;;;13.90;87.00;;;;;;5012107;28;20693;-83
2023/05/15 02:27:02;;;;;;;5.05;2.28;;;13.90;86.70;;;;;;5012325;28;20192;-83
2023/05/15 02:29:55;;;;;;;3.85;2.38;;;13.90;87.20;;;;;;5012218;28;20188;-83
2023/05/15 02:32:58;;;;;;;5.20;2.45;;;13.40;91.30;;;;;;5016513;28;20639;-84
2023/05/15 02:35:45;;;;;;;7.82;2.72;;;13.80;87.20;;;;;;5015808;28;20563;-84
2023/05/15 02:38:16;;;;;;;3.50;2.47;;;13.80;88.00;;;;;;5015966;28;20209;-84
2023/05/15 02:40:43;;;;;;;3.50;2.13;;;13.80;87.40;;;;;;5017209;28;20677;-83
2023/05/15 02:43:10;;;;;;;3.90;2.65;;;13.80;87.30;;;;;;5016751;28;20264;-83
2023/05/15 02:45:36;;;;;;;3.92;2.30;;;13.80;86.90;;;;;;5017068;28;20286;-83
2023/05/15 02:48:03;;;;;;;7.85;2.80;;;13.80;87.90;;;;;;5016121;28;20184;-83
2023/05/15 02:50:29;;;;;;;5.40;2.22;;;13.80;87.80;;;;;;5032178;28;20547;-84
2023/05/15 02:53:06;;;;;;;3.20;2.42;;;13.80;87.90;;;;;;5017411;28;20641;-83
2023/05/15 02:55:33;;;;;;;5.72;1.95;;;13.80;88.00;;;;;;5017027;28;20223;-83
2023/05/15 02:57:58;;;;;;;4.25;2.75;;;13.80;88.20;;;;;;5015914;28;20181;-84
2023/05/15 03:00:24;;;;;;;7.05;2.92;;;13.80;89.00;;;;;;5015314;28;20193;-84
2023/05/15 03:02:50;;;;;;;2.35;2.08;;;13.80;89.30;;;;;;5016959;28;20180;-84
2023/05/15 03:05:15;;;;;;;3.78;2.83;;;13.80;89.50;;;;;;5015108;28;20681;-84
2023/05/15 03:07:41;;;;;;;3.17;2.13;;;13.80;89.90;;;;;;5017056;28;20508;-84
2023/05/15 03:10:07;;;;;;;5.07;2.60;;;13.80;89.80;;;;;;5015414;28;20646;-83
2023/05/15 03:12:33;;;;;;;4.68;2.60;;;13.80;90.10;;;;;;5016156;28;20176;-84
2023/05/15 03:15:00;;;;;;;3.17;2.80;;;13.80;89.80;;;;;;5016527;28;20221;-85
2023/05/15 03:17:26;;;;;;;6.20;3.35;;;13.80;89.80;;;;;;5014817;28;20185;-85
2023/05/15 03:19:52;;;;;;;3.65;2.50;;;13.80;90.00;;;;;;5015265;28;20181;-84
2023/05/15 03:22:17;;;;;;;6.85;2.95;;;13.80;90.00;;;;;;5016453;28;20191;-84
2023/05/15 03:24:44;;;;;;;4.07;2.35;;;13.80;89.80;;;;;;5015191;28;20209;-84
2023/05/15 03:27:10;;;;;;;5.47;2.78;;;13.60;92.10;;;;;;5016379;28;20177;-84
2023/05/15 03:29:35;;;;;;;6.10;2.67;;;13.80;90.00;;;;;;5016190;28;20191;-84
2023/05/15 03:32:01;;;;;;;4.43;2.30;;;13.80;89.70;;;;;;5016370;28;20179;-85
2023/05/15 03:34:27;;;;;;;3.92;2.80;;;13.90;90.20;;;;;;4981920;28;20568;-84
2023/05/15 03:36:52;;;;;;;5.30;2.70;;;13.90;90.10;;;;;;5002232;28;20190;-83
2023/05/15 03:39:18;;;;;;;5.65;2.78;;;11.40;88.20;;;;;;4987412;28;20217;-83
2023/05/15 03:41:43;;;;;;;3.15;2.65;;;13.90;90.20;;;;;;4977183;28;20232;-83
2023/05/15 03:44:09;;;;;;;7.07;3.10;;;13.90;90.10;;;;;;4992113;28;20209;-82
2023/05/15 03:46:35;;;;;;;2.78;2.53;;;13.90;90.20;;;;;;4994382;28;20181;-82
2023/05/15 03:49:00;;;;;;;4.05;2.83;;;13.90;90.30;;;;;;5009627;28;20189;-84
2023/05/15 03:51:26;;;;;;;3.90;2.63;;;14.00;90.50;;;;;;4993325;28;20193;-83
2023/05/15 03:53:52;;;;;;;3.63;2.80;;;14.00;90.50;;;;;;4993232;28;20189;-82
2023/05/15 03:56:17;;;;;;;4.15;2.88;;;14.00;90.30;;;;;;5009109;28;20280;-81
2023/05/15 03:58:43;;;;;;;5.97;2.85;;;14.10;90.30;;;;;;4992466;28;20213;-82
2023/05/15 04:01:09;;;;;;;4.05;2.92;;;14.20;90.10;;;;;;4992991;28;20188;-82
2023/05/15 04:03:34;;;;;;;4.22;2.55;;;14.20;90.10;;;;;;4995392;28;20232;-82
2023/05/15 04:06:00;;;;;;;5.53;2.85;;;14.30;89.90;;;;;;4996107;28;20214;-82
2023/05/15 04:08:25;;;;;;;3.97;2.55;;;14.40;90.00;;;;;;4999714;28;20186;-82
2023/05/15 04:10:51;;;;;;;5.60;3.05;;;14.40;89.90;;;;;;5018867;28;20189;-82
2023/05/15 04:13:17;;;;;;;3.97;2.92;;;14.40;90.00;;;;;;5010971;28;20627;-80
2023/05/15 04:15:42;;;;;;;3.50;2.47;;;14.50;89.70;;;;;;4993151;28;20701;-81
2023/05/15 04:18:08;;;;;;;3.92;2.45;;;14.50;89.80;;;;;;4993597;28;20212;-82
2023/05/15 04:20:34;;;;;;;3.30;2.58;;;14.50;89.60;;;;;;4994540;28;20253;-82
2023/05/15 04:23:02;;;;;;;3.75;2.53;;;14.50;89.50;;;;;;4992995;28;20675;-81
2023/05/15 04:25:28;;;;;;;3.70;2.33;;;14.50;89.20;;;;;;4980177;28;20221;-82
2023/05/15 04:27:55;;;;;;;3.28;2.55;;;14.50;89.20;;;;;;5008795;28;20185;-82
2023/05/15 04:30:20;;;;;;;3.80;2.60;;;14.50;89.90;;;;;;5008836;28;20205;-82
2023/05/15 04:32:46;;;;;;;3.67;2.50;;;14.60;88.70;;;;;;4992362;28;20596;-83
2023/05/15 04:35:13;;;;;;;4.25;3.20;;;14.60;89.30;;;;;;4992632;28;20189;-83
2023/05/15 04:37:40;;;;;;;3.42;2.67;;;14.60;88.70;;;;;;4992859;28;20281;-83
2023/05/15 04:40:06;;;;;;;7.28;2.70;;;14.60;89.70;;;;;;4992898;28;20178;-82
2023/05/15 04:42:33;;;;;;;3.83;2.47;;;14.60;88.80;;;;;;4992394;28;20769;-82
2023/05/15 04:44:58;;;;;;;2.95;2.42;;;14.60;89.80;;;;;;5008498;28;20315;-83
2023/05/15 04:47:24;;;;;;;5.25;2.35;;;14.60;89.70;;;;;;4994679;28;20608;-82
2023/05/15 04:49:50;;;;;;;4.20;3.15;;;14.60;90.00;;;;;;4992488;28;20682;-82
2023/05/15 04:52:16;;;;;;;4.68;2.55;;;14.60;90.10;;;;;;4994421;28;20268;-83
2023/05/15 04:54:42;;;;;;;2.75;2.17;;;14.50;90.00;;;;;;5014610;28;20533;-83
2023/05/15 04:57:08;;;;;;;2.55;2.20;;;14.50;90.20;;;;;;5000175;28;20193;-82
2023/05/15 04:59:34;;;;;;;4.38;2.33;;;14.50;90.50;;;;;;4993905;28;20245;-85
2023/05/15 05:02:00;;;;;;;3.65;2.25;;;14.50;90.20;;;;;;4996255;28;20221;-83
2023/05/15 05:04:26;;;;;;;3.20;2.00;;;14.50;90.60;;;;;;4992999;28;20205;-82
2023/05/15 05:06:51;;;;;;;4.70;2.72;;;14.50;90.50;;;;;;4996829;28;20197;-82
2023/05/15 05:09:20;;;;;;;15.90;2.55;;;14.50;90.70;;;;;;4994890;28;20196;-82
2023/05/15 05:11:46;;;;;;;6.43;2.50;;;14.50;90.70;;;;;;4994710;28;20643;-83
2023/05/15 05:14:13;;;;;;;2.15;1.85;;;14.50;90.40;;;;;;4994845;28;20647;-82
2023/05/15 05:16:40;;;;;;;2.97;2.15;;;14.60;90.30;;;;;;4995046;28;20185;-83
2023/05/15 05:19:06;;;;;;;4.47;2.50;;;14.60;90.30;;;;;;4995054;28;20178;-83
2023/05/15 05:21:32;;;;;;;3.70;2.67;;;14.70;90.30;;;;;;4994793;28;20527;-84
2023/05/15 05:23:58;;;;;;;11.48;3.15;;;14.60;90.60;;;;;;4994588;28;20702;-83
2023/05/15 05:26:25;;;;;;;6.20;2.10;;;14.70;90.40;;;;;;4995082;28;20678;-84
2023/05/15 05:28:50;;;;;;;4.57;3.03;;;14.70;90.40;;;;;;4993848;28;20186;-82
2023/05/15 05:31:16;;;;;;;6.35;2.90;;;14.70;90.30;;;;;;4994383;28;20186;-83
2023/05/15 05:33:42;;;;;;;3.15;2.30;;;14.70;90.80;;;;;;4993079;28;20612;-85
2023/05/15 05:36:08;;;;;;;2.72;2.13;;;14.70;90.40;;;;;;5009485;28;20185;-83
2023/05/15 05:38:35;;;;;;;2.67;2.33;;;14.80;90.70;;;;;;4993229;28;20178;-83
2023/05/15 05:41:00;;;;;;;4.43;2.42;;;14.70;91.10;;;;;;5000857;28;20249;-83
2023/05/15 05:43:28;;;;;;;4.50;2.80;;;14.70;91.20;;;;;;5004960;28;20178;-83
2023/05/15 05:45:54;;;;;;;4.65;2.55;;;14.70;91.30;;;;;;5001903;28;20643;-83
2023/05/15 05:48:19;;;;;;;8.88;2.88;;;14.70;91.80;;;;;;5001244;28;20225;-82
2023/05/15 05:50:45;;;;;;;4.03;2.72;;;14.70;91.70;;;;;;5017833;28;20178;-82
2023/05/15 05:53:11;;;;;;;4.05;2.75;;;14.70;92.00;;;;;;5017949;28;20190;-82
2023/05/15 05:55:36;;;;;;;5.63;3.30;;;14.70;92.20;;;;;;5018245;28;20174;-82
2023/05/15 05:58:03;;;;;;;3.83;2.30;;;14.70;92.30;;;;;;5009891;28;20300;-82
2023/05/15 06:00:30;;;;;;;3.80;2.28;;;14.60;92.30;;;;;;4999043;28;20272;-82
2023/05/15 06:02:57;;;;;;;3.50;2.65;;;14.60;92.80;;;;;;5005443;28;20170;-81
2023/05/15 06:05:24;;;;;;;2.70;2.35;;;14.60;93.00;;;;;;5017576;28;20212;-81
2023/05/15 06:07:50;;;;;;;2.40;2.10;;;14.60;93.10;;;;;;5026304;28;20191;-83
2023/05/15 06:10:16;;;;;;;3.90;2.38;;;14.60;93.20;;;;;;5021965;28;20568;-82
2023/05/15 06:12:41;;;;;;;4.55;2.85;;;14.60;93.30;;;;;;5007965;28;20169;-83
2023/05/15 06:15:07;;;;;;;3.72;2.70;;;14.60;93.50;;;;;;5021480;28;20181;-83
2023/05/15 06:17:33;;;;;;;3.10;2.33;;;14.60;94.30;;;;;;5008540;28;20189;-83
2023/05/15 06:19:59;;;;;;;4.60;2.88;;;;;;;;;;5021443;28;20268;-84
2023/05/15 06:22:25;;;;;;;6.00;3.22;;;14.80;95.10;;;;;;5006509;28;20205;-84
2023/05/15 06:24:50;;;;;;;6.85;3.30;;;14.80;94.50;;;;;;5021644;28;20205;-84
2023/05/15 06:27:16;;;;;;;3.47;2.63;;;14.80;95.00;;;;;;5007040;28;20181;-83
2023/05/15 06:29:42;;;;;;;4.20;3.17;;;14.90;95.50;;;;;;5005065;28;20186;-83
2023/05/15 06:32:07;;;;;;;9.32;3.17;;;14.90;95.30;;;;;;5004393;28;20178;-83
2023/05/15 06:34:33;;;;;;;4.03;2.90;;;14.90;95.40;;;;;;4996160;28;20189;-83
2023/05/15 06:37:00;;;;;;;4.45;2.58;;;14.90;94.30;;;;;;4995856;28;20627;-83
2023/05/15 06:39:25;;;;;;;5.03;2.80;;;14.90;94.60;;;;;;4996866;28;20178;-83
2023/05/15 06:41:56;;;;;;;3.50;2.50;;;;;;;;;;4996626;28;20232;-83
2023/05/15 06:44:22;;;;;;;2.85;2.33;;;14.80;94.10;;;;;;4997843;28;20209;-83
2023/05/15 06:46:48;;;;;;;4.15;2.58;;;14.80;94.80;;;;;;5011031;28;20185;-82
2023/05/15 06:49:14;;;;;;;4.18;2.42;;;14.70;95.10;;;;;;5007253;28;20178;-83
2023/05/15 06:51:39;;;;;;;3.70;2.60;;;14.60;95.30;;;;;;5009444;28;20338;-84
2023/05/15 06:54:05;;;;;;;2.58;2.20;;;14.50;96.00;;;;;;5010285;28;20185;-84
2023/05/15 06:56:31;;;;;;;3.47;2.78;;;14.20;99.90;;;;;;4977610;28;20201;-83
2023/05/15 06:58:56;;;;;;;7.70;2.60;;;14.40;99.00;;;;;;5027387;28;20221;-83
2023/05/15 07:01:22;;;;;;;2.50;2.20;;;14.40;99.90;;;;;;5011383;28;20193;-83
2023/05/15 07:03:48;;;;;;;4.22;3.00;;;14.30;99.90;;;;;;5008619;28;20446;-83
2023/05/15 07:06:13;;;;;;;2.78;2.53;;;14.20;99.90;;;;;;5016059;28;20186;-83
2023/05/15 07:08:39;;;;;;;4.28;2.80;;;14.20;99.90;;;;;;5034272;28;20227;-83
2023/05/15 07:11:05;;;;;;;5.60;2.70;;;14.10;99.90;;;;;;5003147;28;20181;-84
2023/05/15 07:13:30;;;;;;;6.50;2.88;;;14.00;99.90;;;;;;5005512;28;20200;-84
2023/05/15 07:15:56;;;;;;;5.30;3.35;;;13.80;99.90;;;;;;5019584;28;20251;-84
2023/05/15 07:18:21;;;;;;;4.63;2.95;;;13.80;99.90;;;;;;5003355;28;20201;-84
2023/05/15 07:20:47;;;;;;;7.13;3.00;;;13.80;99.90;;;;;;5003670;28;20189;-84
2023/05/15 07:23:13;;;;;;;5.18;3.30;;;13.70;99.90;;;;;;5002999;28;20185;-84
2023/05/15 07:25:38;;;;;;;7.03;4.03;;;13.60;99.90;;;;;;5024184;28;20311;-83
2023/05/15 07:28:04;;;;;;;10.27;4.05;;;13.50;99.90;;;;;;5006748;28;20638;-84
2023/05/15 07:30:30;;;;;;;6.53;3.97;;;13.40;99.90;;;;;;5002683;28;20237;-84
2023/05/15 07:32:55;;;;;;;5.35;3.63;;;13.40;99.90;;;;;;5005173;28;20235;-84
2023/05/15 07:35:21;;;;;;;6.80;4.05;;;13.30;99.90;;;;;;5006582;28;20285;-83
2023/05/15 07:37:47;;;;;;;9.82;4.20;;;13.20;99.90;;;;;;5001474;28;20264;-84
2023/05/15 07:40:14;;;;;;;6.40;4.13;;;13.10;99.90;;;;;;4991261;28;20181;-83
2023/05/15 07:42:41;;;;;;;8.60;4.05;;;13.10;99.90;;;;;;5003409;28;20219;-84
2023/05/15 07:45:07;;;;;;;5.35;4.13;;;13.00;99.90;;;;;;4998658;28;20264;-83
2023/05/15 07:47:34;;;;;;;6.07;3.67;;;13.00;99.90;;;;;;5018562;28;20170;-83
2023/05/15 07:50:00;;;;;;;8.77;4.45;;;13.00;99.90;;;;;;5028790;28;20181;-83
2023/05/15 07:52:25;;;;;;;6.18;3.63;;;12.90;99.90;;;;;;5022111;28;20188;-83
2023/05/15 07:54:51;;;;;;;5.88;3.80;;;12.80;99.90;;;;;;5019302;28;20194;-84
2023/05/15 07:57:17;;;;;;;5.85;3.75;;;12.80;99.90;;;;;;5016158;28;20229;-83
2023/05/15 07:59:43;;;;;;;4.63;3.72;;;12.70;99.90;;;;;;5015622;28;20182;-84
2023/05/15 08:02:08;;;;;;;7.60;4.10;;;12.90;99.90;;;;;;5003139;28;20178;-85
2023/05/15 08:04:34;;;;;;;6.95;4.25;;;13.00;99.90;;;;;;4996487;28;20216;-85
2023/05/15 08:07:00;;;;;;;5.63;3.80;;;13.00;99.90;;;;;;4994539;28;20265;-84
2023/05/15 08:09:25;;;;;;;9.68;4.47;;;13.00;99.90;;;;;;4996309;28;20186;-84
2023/05/15 08:11:54;;;;;;;7.18;3.90;;;13.10;99.90;;;;;;4995781;28;20635;-84
2023/05/15 08:14:20;;;;;;;8.35;4.45;;;13.20;99.90;;;;;;5002280;28;20197;-84
2023/05/15 08:16:45;;;;;;;4.75;4.03;;;13.20;99.90;;;;;;5011128;28;20181;-84
2023/05/15 08:19:11;;;;;;;7.40;4.22;;;13.20;99.90;;;;;;5005929;28;20205;-84
2023/05/15 08:21:37;;;;;;;4.93;3.45;;;13.20;99.90;;;;;;5006088;28;20178;-83
2023/05/15 08:24:03;;;;;;;8.45;3.72;;;13.20;99.90;;;;;;5012921;28;20567;-84
2023/05/15 08:26:28;;;;;;;5.97;3.90;;;13.20;99.90;;;;;;5003016;28;20182;-84
2023/05/15 08:28:54;;;;;;;5.13;3.92;;;13.10;99.90;;;;;;5005279;28;20634;-84
2023/05/15 08:31:20;;;;;;;5.43;3.72;;;13.10;99.90;;;;;;5002886;28;20185;-83
2023/05/15 08:33:45;;;;;;;5.20;4.00;;;13.00;99.90;;;;;;5003411;28;20182;-84
2023/05/15 08:36:11;;;;;;;5.57;3.75;;;13.00;99.90;;;;;;5001597;28;20186;-84
2023/05/15 08:38:36;;;;;;;8.07;4.35;;;13.10;99.90;;;;;;5013434;28;20638;-84
2023/05/15 08:41:09;;;;;;;6.78;4.40;;;13.10;99.90;;;;;;4993602;28;20235;-84
2023/05/15 08:43:38;;;;;;;5.15;3.90;;;13.10;99.90;;;;;;5010299;28;20182;-83
2023/05/15 08:46:05;;;;;;;6.45;4.55;;;13.10;99.90;;;;;;4995346;28;20206;-83
2023/05/15 08:48:35;;;;;;;6.50;4.60;;;13.20;99.90;;;;;;4994229;28;20182;-84
2023/05/15 08:51:02;;;;;;;5.43;3.83;;;13.20;99.90;;;;;;4995162;28;20205;-82
2023/05/15 08:53:28;;;;;;;4.93;3.70;;;13.20;99.90;;;;;;4994811;28;20196;-84
2023/05/15 08:55:54;;;;;;;7.45;4.13;;;13.20;99.90;;;;;;4995548;28;20174;-84
2023/05/15 08:58:24;;;;;;;4.93;4.00;;;13.30;99.90;;;;;;4995907;28;20185;-84
2023/05/15 09:00:50;;;;;;;5.50;3.80;;;13.30;99.90;;;;;;5010512;28;20182;-83
2023/05/15 09:03:18;;;;;;;7.82;4.78;;;13.40;99.90;;;;;;5010405;28;20190;-84
2023/05/15 09:05:45;;;;;;;6.57;3.97;;;13.40;99.90;;;;;;4995852;28;20213;-85
2023/05/15 09:08:11;;;;;;;5.38;3.83;;;13.40;99.90;;;;;;4995305;28;20188;-84
2023/05/15 09:10:38;;;;;;;5.95;3.75;;;13.40;99.90;;;;;;4995434;28;20174;-83
2023/05/15 09:13:06;;;;;;;6.22;4.05;;;13.40;99.90;;;;;;4994929;28;20232;-84
2023/05/15 09:15:32;;;;;;;15.55;4.30;;;13.40;99.90;;;;;;4994524;28;20652;-83
2023/05/15 09:17:59;;;;;;;6.45;4.40;;;13.40;99.90;;;;;;4994271;28;20273;-84
2023/05/15 09:20:33;;;;;;;10.63;4.45;;;13.40;99.90;;;;;;5011404;28;20184;-84
2023/05/15 09:23:07;;;;;;;7.78;4.53;;;13.30;99.90;;;;;;5007838;28;20180;-83
2023/05/15 09:25:43;;;;;;;8.05;4.65;;;13.30;99.90;;;;;;4996810;28;20212;-84
2023/05/15 09:28:23;;;;;;;9.20;4.50;;;13.30;99.90;;;;;;5008112;28;20190;-84
2023/05/15 09:30:49;;;;;;;9.90;4.95;;;13.40;99.90;;;;;;5021729;28;20184;-84
2023/05/15 09:33:16;;;;;;;6.30;4.60;;;13.40;99.90;;;;;;5012782;28;20293;-82
2023/05/15 09:35:41;;;;;;;7.65;4.30;;;13.40;99.90;;;;;;5006287;28;20733;-85
2023/05/15 09:38:10;;;;;;;7.25;5.00;;;13.40;99.90;;;;;;5004588;28;20202;-85
2023/05/15 09:40:38;;;;;;;7.32;4.38;;;13.50;99.90;;;;;;5015235;28;20182;-84
2023/05/15 09:43:03;;;;;;;6.68;4.70;;;13.50;99.90;;;;;;5024781;28;20180;-84
2023/05/15 09:45:30;;;;;;;5.75;4.13;;;13.50;99.90;;;;;;4985696;28;20217;-84
2023/05/15 09:48:01;;;;;;;6.72;4.35;;;13.60;99.90;;;;;;5004848;28;20194;-83
2023/05/15 09:50:38;;;;;;;12.55;5.38;;;13.60;99.90;;;;;;5006271;28;20161;-84
2023/05/15 09:53:04;;;;;;;6.50;4.10;;;13.70;99.90;;;;;;5004356;28;20216;-84
2023/05/15 09:55:35;;;;;;;5.53;4.00;;;13.80;99.90;;;;;;5000615;28;20184;-84
2023/05/15 09:58:12;;;;;;;8.00;5.20;;;13.80;99.90;;;;;;5016112;28;20678;-83
2023/05/15 10:00:39;;;;;;;10.07;5.00;;;13.80;99.90;;;;;;5021708;28;20177;-83
2023/05/15 10:03:06;;;;;;;8.32;4.53;;;13.80;99.90;;;;;;5016338;28;20174;-84
2023/05/15 10:05:32;;;;;;;11.10;4.00;;;13.80;99.90;;;;;;5005076;28;20212;-84
2023/05/15 10:07:58;;;;;;;8.93;5.00;;;13.70;99.90;;;;;;5002442;28;20188;-83
2023/05/15 10:10:25;;;;;;;11.15;5.07;;;13.70;99.90;;;;;;4999715;28;20228;-84
2023/05/15 10:12:52;;;;;;;7.82;4.88;;;13.60;99.90;;;;;;4997816;28;20312;-85
2023/05/15 10:15:21;;;;;;;6.93;4.88;;;13.60;99.90;;;;;;5020435;28;20553;-84
2023/05/15 10:17:48;;;;;;;6.00;4.05;;;13.60;99.90;;;;;;5020164;28;20229;-83
2023/05/15 10:20:16;;;;;;;6.55;4.70;;;13.60;99.90;;;;;;5002134;28;20184;-84
2023/05/15 10:22:46;;;;;;;8.05;5.00;;;13.70;99.90;;;;;;5003368;28;20169;-85
2023/05/15 10:25:29;;;;;;;8.85;4.93;;;13.70;99.90;;;;;;5007832;28;20208;-83
2023/05/15 10:27:55;;;;;;;7.65;5.22;;;13.80;99.90;;;;;;5002845;28;20177;-83
2023/05/15 10:30:22;;;;;;;7.75;4.75;;;13.80;99.90;;;;;;5006658;28;20189;-84
2023/05/15 10:32:49;;;;;;;5.93;4.10;;;13.80;99.90;;;;;;5011670;28;20185;-83
2023/05/15 10:35:16;;;;;;;5.78;4.75;;;13.80;99.90;;;;;;5012815;28;20243;-83
2023/05/15 10:37:46;;;;;;;4.72;4.18;;;13.80;99.90;;;;;;5013133;28;20185;-83
2023/05/15 10:40:13;;;;;;;6.97;4.45;;;13.70;99.90;;;;;;5011544;28;20261;-84
2023/05/15 10:42:42;;;;;;;7.30;4.65;;;13.70;99.90;;;;;;5011327;28;20236;-84
2023/05/15 10:45:08;;;;;;;4.88;4.40;;;13.60;99.90;;;;;;5011449;28;20212;-85
2023/05/15 10:47:37;;;;;;;8.00;5.22;;;13.60;99.90;;;;;;5011829;28;20279;-84
2023/05/15 10:50:04;;;;;;;6.95;4.43;;;13.50;99.90;;;;;;5012073;28;20243;-84
2023/05/15 10:52:32;;;;;;;6.95;4.60;;;13.50;99.90;;;;;;5013354;28;20188;-84
2023/05/15 10:54:58;;;;;;;5.70;4.32;;;13.50;99.90;;;;;;5016768;28;20181;-84
2023/05/15 10:57:24;;;;;;;8.43;4.30;;;13.40;99.90;;;;;;5015311;28;20192;-84
2023/05/15 10:59:50;;;;;;;5.35;4.53;;;13.30;99.90;;;;;;5015597;28;20203;-83
2023/05/15 11:02:28;;;;;;;6.78;4.57;;;13.40;99.90;;;;;;4998988;28;20185;-84
2023/05/15 11:05:02;;;;;;;6.90;5.10;;;13.30;99.90;;;;;;5016304;28;20567;-84
2023/05/15 11:07:28;;;;;;;11.38;4.88;;;13.30;99.90;;;;;;5016882;28;20610;-83
2023/05/15 11:09:55;;;;;;;8.80;5.07;;;13.30;99.90;;;;;;5015536;28;20176;-84
2023/05/15 11:12:21;;;;;;;9.30;4.47;;;13.30;99.90;;;;;;5015370;28;20642;-84
2023/05/15 11:14:56;;;;;;;10.88;4.57;;;13.30;99.90;;;;;;5015067;28;20187;-84
2023/05/15 11:17:25;;;;;;;4.95;4.07;;;13.20;99.90;;;;;;5016289;28;20177;-84
2023/05/15 11:19:51;;;;;;;5.13;4.25;;;13.20;99.90;;;;;;5018448;28;20186;-84
2023/05/15 11:22:18;;;;;;;6.50;4.70;;;13.20;99.90;;;;;;5018994;28;20252;-85
2023/05/15 11:25:08;;;;;;;7.72;5.15;;;13.30;99.90;;;;;;5033405;28;20201;-83
2023/05/15 11:27:45;;;;;;;7.53;5.05;;;13.30;99.90;;;;;;5040740;28;20162;-83
2023/05/15 11:30:23;;;;;;;6.32;4.13;;;13.30;99.90;;;;;;5041067;28;20176;-85
2023/05/15 11:33:03;;;;;;;10.77;4.90;;;13.40;99.90;;;;;;5031400;28;20185;-84
2023/05/15 11:35:35;;;;;;;7.68;4.43;;;13.30;99.90;;;;;;5036427;28;20180;-84
2023/05/15 11:38:02;;;;;;;7.13;5.00;;;13.40;99.90;;;;;;5040655;28;20173;-84
2023/05/15 11:40:30;;;;;;;7.57;5.40;;;13.40;99.90;;;;;;5040421;28;20176;-83
2023/05/15 11:42:59;;;;;;;7.13;4.85;;;13.40;99.90;;;;;;5039550;28;20201;-84
2023/05/15 11:45:26;;;;;;;12.98;5.13;;;13.40;99.90;;;;;;5031166;28;20271;-84
2023/05/15 11:47:52;;;;;;;6.90;5.40;;;13.40;99.90;;;;;;5026508;28;20190;-83
2023/05/15 11:50:19;;;;;;;6.85;4.63;;;13.30;99.90;;;;;;5019243;28;20213;-83
2023/05/15 11:52:47;;;;;;;12.20;5.05;;;13.30;99.90;;;;;;5020059;28;20182;-83
2023/05/15 11:55:14;;;;;;;10.32;5.60;;;13.30;99.90;;;;;;5020264;28;20158;-84
2023/05/15 11:57:40;;;;;;;8.52;5.32;;;13.40;99.90;;;;;;5017981;28;20175;-84
2023/05/15 12:00:07;;;;;;;7.97;5.25;;;13.40;99.90;;;;;;5004762;28;20193;-83
2023/05/15 12:02:33;;;;;;;7.88;4.70;;;13.30;99.90;;;;;;5007464;28;20256;-84
2023/05/15 12:04:59;;;;;;;11.93;5.57;;;13.40;99.90;;;;;;5001520;28;20289;-84
2023/05/15 12:07:24;;;;;;;7.03;4.60;;;13.40;99.90;;;;;;4972429;28;20177;-84
2023/05/15 12:09:51;;;;;;;12.93;5.57;;;13.50;99.90;;;;;;5003786;28;20193;-84
2023/05/15 12:12:17;;;;;;;8.02;4.57;;;13.40;99.90;;;;;;5002757;28;20173;-83
2023/05/15 12:14:42;;;;;;;10.80;6.07;;;13.40;99.90;;;;;;5004678;28;20189;-84
2023/05/15 12:17:08;;;;;;;11.68;5.05;;;13.40;99.90;;;;;;5004187;28;20193;-83
2023/05/15 12:19:36;;;;;;;11.52;5.65;;;13.30;99.90;;;;;;5003007;28;20271;-84
2023/05/15 12:22:06;;;;;;;9.93;5.10;;;13.30;99.90;;;;;;5004772;28;20181;-83
2023/05/15 12:24:34;;;;;;;9.43;5.13;;;13.30;99.90;;;;;;5004926;28;20260;-83
2023/05/15 12:27:00;;;;;;;5.75;4.50;;;13.30;99.90;;;;;;5003729;28;20180;-83
2023/05/15 12:29:27;;;;;;;10.07;5.07;;;13.30;99.90;;;;;;5004936;28;20295;-84
2023/05/15 12:31:53;;;;;;;10.95;4.97;;;13.20;99.90;;;;;;5004955;28;20571;-85
2023/05/15 12:34:20;;;;;;;8.48;4.93;;;13.20;99.90;;;;;;5002363;28;20249;-85
2023/05/15 12:36:46;;;;;;;10.57;5.28;;;13.20;99.90;;;;;;5004296;28;20174;-85
2023/05/15 12:39:11;;;;;;;12.02;5.10;;;13.20;99.90;;;;;;5001123;28;20638;-84
2023/05/15 12:41:37;;;;;;;9.52;5.03;;;13.20;99.90;;;;;;5004673;28;20257;-84
2023/05/15 12:44:04;;;;;;;12.02;4.50;;;13.20;99.90;;;;;;5002596;28;20268;-84
2023/05/15 12:46:31;;;;;;;6.22;4.57;;;13.20;99.90;;;;;;5006958;28;20182;-84
2023/05/15 12:49:00;;;;;;;7.07;4.70;;;13.20;99.90;;;;;;5014113;28;20183;-84